sensor_id;sensor_type;location;lat;lon;timestamp;P1;durP1;ratioP1;P2;durP2;ratioP2
12665;SDS011;58531;59.050;17.416;2023-06-22T00:00:51;10.47;;;9.50;;
12665;SDS011;58531;59.050;17.416;2023-06-22T00:03:18;9.67;;;8.33;;
12665;SDS011;58531;59.050;17.416;2023-06-22T00:05:46;9.80;;;8.97;;
12665;SDS011;58531;59.050;17.416;2023-06-22T00:08:15;10.00;;;9.10;;
12665;SDS011;58531;59.050;17.416;2023-06-22T00:10:42;10.40;;;9.40;;
12665;SDS011;58531;59.050;17.416;2023-06-22T00:13:10;11.13;;;10.10;;
12665;SDS011;58531;59.050;17.416;2023-06-22T00:15:38;10.23;;;9.23;;
12665;SDS011;58531;59.050;17.416;2023-06-22T00:18:05;9.87;;;9.07;;
12665;SDS011;58531;59.050;17.416;2023-06-22T00:20:33;10.67;;;9.67;;
12665;SDS011;58531;59.050;17.416;2023-06-22T00:23:01;10.27;;;9.27;;
12665;SDS011;58531;59.050;17.416;2023-06-22T00:25:35;10.73;;;9.80;;
12665;SDS011;58531;59.050;17.416;2023-06-22T00:28:02;11.00;;;10.10;;
12665;SDS011;58531;59.050;17.416;2023-06-22T00:30:29;10.50;;;9.50;;
12665;SDS011;58531;59.050;17.416;2023-06-22T00:32:57;11.37;;;10.37;;
12665;SDS011;58531;59.050;17.416;2023-06-22T00:35:24;10.73;;;9.83;;
12665;SDS011;58531;59.050;17.416;2023-06-22T00:37:54;11.87;;;10.67;;
12665;SDS011;58531;59.050;17.416;2023-06-22T00:40:25;11.67;;;10.67;;
12665;SDS011;58531;59.050;17.416;2023-06-22T00:42:54;11.77;;;10.63;;
12665;SDS011;58531;59.050;17.416;2023-06-22T00:45:21;11.20;;;10.13;;
12665;SDS011;58531;59.050;17.416;2023-06-22T00:47:51;11.57;;;10.43;;
12665;SDS011;58531;59.050;17.416;2023-06-22T00:50:18;11.47;;;10.47;;
12665;SDS011;58531;59.050;17.416;2023-06-22T00:52:48;11.93;;;10.73;;
12665;SDS011;58531;59.050;17.416;2023-06-22T00:55:19;11.07;;;10.07;;
12665;SDS011;58531;59.050;17.416;2023-06-22T00:57:47;10.87;;;9.93;;
12665;SDS011;58531;59.050;17.416;2023-06-22T01:00:16;11.20;;;10.10;;
12665;SDS011;58531;59.050;17.416;2023-06-22T01:02:45;12.50;;;11.40;;
12665;SDS011;58531;59.050;17.416;2023-06-22T01:05:16;11.33;;;10.33;;
12665;SDS011;58531;59.050;17.416;2023-06-22T01:07:45;12.50;;;11.50;;
12665;SDS011;58531;59.050;17.416;2023-06-22T01:10:25;12.17;;;11.07;;
12665;SDS011;58531;59.050;17.416;2023-06-22T01:12:59;12.07;;;11.07;;
12665;SDS011;58531;59.050;17.416;2023-06-22T01:15:30;12.40;;;11.27;;
12665;SDS011;58531;59.050;17.416;2023-06-22T01:18:03;12.13;;;11.13;;
12665;SDS011;58531;59.050;17.416;2023-06-22T01:20:30;11.97;;;10.97;;
12665;SDS011;58531;59.050;17.416;2023-06-22T01:23:05;11.97;;;10.87;;
12665;SDS011;58531;59.050;17.416;2023-06-22T01:25:41;12.80;;;11.67;;
12665;SDS011;58531;59.050;17.416;2023-06-22T01:28:18;12.77;;;11.67;;
12665;SDS011;58531;59.050;17.416;2023-06-22T01:30:53;13.97;;;12.73;;
12665;SDS011;58531;59.050;17.416;2023-06-22T01:33:28;12.43;;;11.23;;
12665;SDS011;58531;59.050;17.416;2023-06-22T01:35:57;12.20;;;11.10;;
12665;SDS011;58531;59.050;17.416;2023-06-22T01:38:25;13.60;;;12.17;;
12665;SDS011;58531;59.050;17.416;2023-06-22T01:40:54;13.63;;;12.50;;
12665;SDS011;58531;59.050;17.416;2023-06-22T01:43:22;14.60;;;13.20;;
12665;SDS011;58531;59.050;17.416;2023-06-22T01:45:51;14.57;;;13.23;;
12665;SDS011;58531;59.050;17.416;2023-06-22T01:48:20;14.37;;;13.17;;
12665;SDS011;58531;59.050;17.416;2023-06-22T01:50:48;13.90;;;12.60;;
12665;SDS011;58531;59.050;17.416;2023-06-22T01:53:15;14.73;;;13.23;;
12665;SDS011;58531;59.050;17.416;2023-06-22T01:55:42;15.60;;;14.20;;
12665;SDS011;58531;59.050;17.416;2023-06-22T01:58:09;15.17;;;13.77;;
12665;SDS011;58531;59.050;17.416;2023-06-22T02:00:36;14.43;;;13.20;;
12665;SDS011;58531;59.050;17.416;2023-06-22T02:03:05;14.53;;;13.27;;
12665;SDS011;58531;59.050;17.416;2023-06-22T02:05:39;14.93;;;13.63;;
12665;SDS011;58531;59.050;17.416;2023-06-22T02:08:13;15.40;;;14.00;;
12665;SDS011;58531;59.050;17.416;2023-06-22T02:10:43;16.07;;;14.50;;
12665;SDS011;58531;59.050;17.416;2023-06-22T02:13:12;15.00;;;13.50;;
12665;SDS011;58531;59.050;17.416;2023-06-22T02:15:40;14.67;;;13.37;;
12665;SDS011;58531;59.050;17.416;2023-06-22T02:18:08;14.67;;;13.37;;
12665;SDS011;58531;59.050;17.416;2023-06-22T02:20:36;13.57;;;12.37;;
12665;SDS011;58531;59.050;17.416;2023-06-22T02:23:04;14.37;;;13.07;;
12665;SDS011;58531;59.050;17.416;2023-06-22T02:25:32;13.70;;;12.40;;
12665;SDS011;58531;59.050;17.416;2023-06-22T02:27:59;13.17;;;11.87;;
12665;SDS011;58531;59.050;17.416;2023-06-22T02:30:25;14.17;;;12.87;;
12665;SDS011;58531;59.050;17.416;2023-06-22T02:32:52;14.30;;;13.00;;
12665;SDS011;58531;59.050;17.416;2023-06-22T02:35:23;13.83;;;12.63;;
12665;SDS011;58531;59.050;17.416;2023-06-22T02:37:50;13.77;;;12.53;;
12665;SDS011;58531;59.050;17.416;2023-06-22T02:40:19;14.73;;;13.23;;
12665;SDS011;58531;59.050;17.416;2023-06-22T02:42:45;14.17;;;12.97;;
12665;SDS011;58531;59.050;17.416;2023-06-22T02:45:12;14.47;;;13.17;;
12665;SDS011;58531;59.050;17.416;2023-06-22T02:47:39;14.47;;;13.17;;
12665;SDS011;58531;59.050;17.416;2023-06-22T02:50:06;13.37;;;12.27;;
12665;SDS011;58531;59.050;17.416;2023-06-22T02:52:33;13.20;;;12.00;;
12665;SDS011;58531;59.050;17.416;2023-06-22T02:55:00;13.20;;;12.00;;
12665;SDS011;58531;59.050;17.416;2023-06-22T02:57:29;11.80;;;10.83;;
12665;SDS011;58531;59.050;17.416;2023-06-22T02:59:56;11.63;;;10.63;;
12665;SDS011;58531;59.050;17.416;2023-06-22T03:02:23;11.03;;;9.93;;
12665;SDS011;58531;59.050;17.416;2023-06-22T03:04:51;10.43;;;9.53;;
12665;SDS011;58531;59.050;17.416;2023-06-22T03:07:18;9.83;;;8.93;;
12665;SDS011;58531;59.050;17.416;2023-06-22T03:09:45;9.50;;;8.70;;
12665;SDS011;58531;59.050;17.416;2023-06-22T03:12:12;8.23;;;7.53;;
12665;SDS011;58531;59.050;17.416;2023-06-22T03:14:40;8.53;;;7.83;;
12665;SDS011;58531;59.050;17.416;2023-06-22T03:17:07;9.10;;;8.30;;
12665;SDS011;58531;59.050;17.416;2023-06-22T03:19:35;9.00;;;8.30;;
12665;SDS011;58531;59.050;17.416;2023-06-22T03:22:02;8.90;;;8.20;;
12665;SDS011;58531;59.050;17.416;2023-06-22T03:24:30;9.47;;;8.67;;
12665;SDS011;58531;59.050;17.416;2023-06-22T03:26:56;7.60;;;7.00;;
12665;SDS011;58531;59.050;17.416;2023-06-22T03:29:23;9.20;;;8.50;;
12665;SDS011;58531;59.050;17.416;2023-06-22T03:31:52;9.40;;;8.50;;
12665;SDS011;58531;59.050;17.416;2023-06-22T03:34:19;9.17;;;8.43;;
12665;SDS011;58531;59.050;17.416;2023-06-22T03:36:45;9.43;;;8.63;;
12665;SDS011;58531;59.050;17.416;2023-06-22T03:39:12;9.33;;;8.63;;
12665;SDS011;58531;59.050;17.416;2023-06-22T03:41:39;10.10;;;9.20;;
12665;SDS011;58531;59.050;17.416;2023-06-22T03:44:06;9.00;;;8.27;;
12665;SDS011;58531;59.050;17.416;2023-06-22T03:46:35;9.20;;;8.40;;
12665;SDS011;58531;59.050;17.416;2023-06-22T03:49:03;8.77;;;8.00;;
12665;SDS011;58531;59.050;17.416;2023-06-22T03:51:30;8.70;;;8.00;;
12665;SDS011;58531;59.050;17.416;2023-06-22T03:53:59;7.93;;;7.33;;
12665;SDS011;58531;59.050;17.416;2023-06-22T03:56:25;7.80;;;7.10;;
12665;SDS011;58531;59.050;17.416;2023-06-22T03:58:52;6.70;;;6.17;;
12665;SDS011;58531;59.050;17.416;2023-06-22T04:01:19;6.63;;;6.13;;
12665;SDS011;58531;59.050;17.416;2023-06-22T04:03:46;6.27;;;5.77;;
12665;SDS011;58531;59.050;17.416;2023-06-22T04:06:16;6.03;;;5.43;;
12665;SDS011;58531;59.050;17.416;2023-06-22T04:08:44;6.17;;;5.63;;
12665;SDS011;58531;59.050;17.416;2023-06-22T04:11:15;5.77;;;5.33;;
12665;SDS011;58531;59.050;17.416;2023-06-22T04:13:42;5.13;;;4.73;;
12665;SDS011;58531;59.050;17.416;2023-06-22T04:16:09;5.90;;;5.17;;
12665;SDS011;58531;59.050;17.416;2023-06-22T04:18:36;5.20;;;4.70;;
12665;SDS011;58531;59.050;17.416;2023-06-22T04:21:04;4.90;;;4.60;;
12665;SDS011;58531;59.050;17.416;2023-06-22T04:23:32;5.77;;;5.37;;
12665;SDS011;58531;59.050;17.416;2023-06-22T04:25:59;4.87;;;4.47;;
12665;SDS011;58531;59.050;17.416;2023-06-22T04:28:26;5.43;;;4.93;;
12665;SDS011;58531;59.050;17.416;2023-06-22T04:30:53;5.30;;;4.80;;
12665;SDS011;58531;59.050;17.416;2023-06-22T04:33:23;4.87;;;4.47;;
12665;SDS011;58531;59.050;17.416;2023-06-22T04:35:50;4.60;;;4.30;;
12665;SDS011;58531;59.050;17.416;2023-06-22T04:38:16;4.57;;;4.23;;
12665;SDS011;58531;59.050;17.416;2023-06-22T04:40:45;4.30;;;4.00;;
12665;SDS011;58531;59.050;17.416;2023-06-22T04:43:11;4.60;;;4.30;;
12665;SDS011;58531;59.050;17.416;2023-06-22T04:45:38;4.50;;;4.20;;
12665;SDS011;58531;59.050;17.416;2023-06-22T04:48:05;4.43;;;4.07;;
12665;SDS011;58531;59.050;17.416;2023-06-22T04:50:33;5.00;;;4.50;;
12665;SDS011;58531;59.050;17.416;2023-06-22T04:53:00;4.13;;;3.83;;
12665;SDS011;58531;59.050;17.416;2023-06-22T04:55:30;4.10;;;3.80;;
12665;SDS011;58531;59.050;17.416;2023-06-22T04:57:59;4.73;;;4.13;;
12665;SDS011;58531;59.050;17.416;2023-06-22T05:00:29;4.57;;;4.17;;
12665;SDS011;58531;59.050;17.416;2023-06-22T05:02:57;4.70;;;4.30;;
12665;SDS011;58531;59.050;17.416;2023-06-22T05:05:24;4.33;;;4.03;;
12665;SDS011;58531;59.050;17.416;2023-06-22T05:07:51;4.30;;;4.00;;
12665;SDS011;58531;59.050;17.416;2023-06-22T05:10:20;4.07;;;3.77;;
12665;SDS011;58531;59.050;17.416;2023-06-22T05:12:46;4.10;;;3.80;;
12665;SDS011;58531;59.050;17.416;2023-06-22T05:15:15;4.27;;;3.83;;
12665;SDS011;58531;59.050;17.416;2023-06-22T05:17:41;4.60;;;4.20;;
12665;SDS011;58531;59.050;17.416;2023-06-22T05:20:09;4.37;;;4.00;;
12665;SDS011;58531;59.050;17.416;2023-06-22T05:22:36;5.23;;;4.30;;
12665;SDS011;58531;59.050;17.416;2023-06-22T05:25:04;4.27;;;3.90;;
12665;SDS011;58531;59.050;17.416;2023-06-22T05:27:32;4.63;;;4.03;;
12665;SDS011;58531;59.050;17.416;2023-06-22T05:29:59;4.30;;;3.97;;
12665;SDS011;58531;59.050;17.416;2023-06-22T05:32:27;5.30;;;4.80;;
12665;SDS011;58531;59.050;17.416;2023-06-22T05:34:54;5.47;;;4.90;;
12665;SDS011;58531;59.050;17.416;2023-06-22T05:37:20;5.07;;;4.57;;
12665;SDS011;58531;59.050;17.416;2023-06-22T05:39:47;4.60;;;4.20;;
12665;SDS011;58531;59.050;17.416;2023-06-22T05:42:14;5.93;;;4.43;;
12665;SDS011;58531;59.050;17.416;2023-06-22T05:44:41;4.50;;;4.10;;
12665;SDS011;58531;59.050;17.416;2023-06-22T05:47:08;4.57;;;4.17;;
12665;SDS011;58531;59.050;17.416;2023-06-22T05:49:36;4.90;;;4.50;;
12665;SDS011;58531;59.050;17.416;2023-06-22T05:52:03;4.83;;;4.43;;
12665;SDS011;58531;59.050;17.416;2023-06-22T05:54:30;4.87;;;4.47;;
12665;SDS011;58531;59.050;17.416;2023-06-22T05:56:57;5.63;;;5.07;;
12665;SDS011;58531;59.050;17.416;2023-06-22T05:59:24;5.73;;;4.40;;
12665;SDS011;58531;59.050;17.416;2023-06-22T06:01:50;5.07;;;4.67;;
12665;SDS011;58531;59.050;17.416;2023-06-22T06:04:17;4.73;;;4.33;;
12665;SDS011;58531;59.050;17.416;2023-06-22T06:06:46;4.60;;;4.20;;
12665;SDS011;58531;59.050;17.416;2023-06-22T06:09:13;5.20;;;4.80;;
12665;SDS011;58531;59.050;17.416;2023-06-22T06:11:40;5.20;;;4.53;;
12665;SDS011;58531;59.050;17.416;2023-06-22T06:14:07;4.77;;;4.27;;
12665;SDS011;58531;59.050;17.416;2023-06-22T06:16:34;4.90;;;4.50;;
12665;SDS011;58531;59.050;17.416;2023-06-22T06:19:01;4.43;;;4.03;;
12665;SDS011;58531;59.050;17.416;2023-06-22T06:21:27;4.60;;;4.20;;
12665;SDS011;58531;59.050;17.416;2023-06-22T06:23:55;5.43;;;4.93;;
12665;SDS011;58531;59.050;17.416;2023-06-22T06:26:23;4.93;;;4.43;;
12665;SDS011;58531;59.050;17.416;2023-06-22T06:28:55;5.57;;;4.40;;
12665;SDS011;58531;59.050;17.416;2023-06-22T06:31:22;4.67;;;4.27;;
12665;SDS011;58531;59.050;17.416;2023-06-22T06:33:48;4.80;;;4.30;;
12665;SDS011;58531;59.050;17.416;2023-06-22T06:36:15;5.47;;;4.07;;
12665;SDS011;58531;59.050;17.416;2023-06-22T06:38:43;4.80;;;4.30;;
12665;SDS011;58531;59.050;17.416;2023-06-22T06:41:13;6.10;;;3.90;;
12665;SDS011;58531;59.050;17.416;2023-06-22T06:43:40;3.60;;;3.30;;
12665;SDS011;58531;59.050;17.416;2023-06-22T06:46:08;4.27;;;2.90;;
12665;SDS011;58531;59.050;17.416;2023-06-22T06:48:35;3.53;;;3.23;;
12665;SDS011;58531;59.050;17.416;2023-06-22T06:51:01;3.60;;;3.10;;
12665;SDS011;58531;59.050;17.416;2023-06-22T06:53:28;3.33;;;3.03;;
12665;SDS011;58531;59.050;17.416;2023-06-22T06:55:55;3.57;;;2.90;;
12665;SDS011;58531;59.050;17.416;2023-06-22T06:58:23;3.60;;;3.30;;
12665;SDS011;58531;59.050;17.416;2023-06-22T07:00:50;3.63;;;3.33;;
12665;SDS011;58531;59.050;17.416;2023-06-22T07:03:17;3.27;;;2.97;;
12665;SDS011;58531;59.050;17.416;2023-06-22T07:05:44;3.63;;;3.33;;
12665;SDS011;58531;59.050;17.416;2023-06-22T07:08:11;5.63;;;3.60;;
12665;SDS011;58531;59.050;17.416;2023-06-22T07:10:37;5.30;;;3.57;;
12665;SDS011;58531;59.050;17.416;2023-06-22T07:13:04;5.93;;;3.80;;
12665;SDS011;58531;59.050;17.416;2023-06-22T07:15:32;4.37;;;3.50;;
12665;SDS011;58531;59.050;17.416;2023-06-22T07:17:59;4.03;;;3.43;;
12665;SDS011;58531;59.050;17.416;2023-06-22T07:20:26;3.53;;;3.23;;
12665;SDS011;58531;59.050;17.416;2023-06-22T07:22:53;3.23;;;2.93;;
12665;SDS011;58531;59.050;17.416;2023-06-22T07:25:19;5.57;;;3.83;;
12665;SDS011;58531;59.050;17.416;2023-06-22T07:27:56;5.03;;;3.27;;
12665;SDS011;58531;59.050;17.416;2023-06-22T07:30:24;4.37;;;3.97;;
12665;SDS011;58531;59.050;17.416;2023-06-22T07:32:53;3.30;;;3.00;;
12665;SDS011;58531;59.050;17.416;2023-06-22T07:35:20;4.23;;;3.60;;
12665;SDS011;58531;59.050;17.416;2023-06-22T07:37:47;4.10;;;3.77;;
12665;SDS011;58531;59.050;17.416;2023-06-22T07:40:14;4.70;;;4.00;;
12665;SDS011;58531;59.050;17.416;2023-06-22T07:42:40;6.27;;;4.00;;
12665;SDS011;58531;59.050;17.416;2023-06-22T07:45:07;4.37;;;3.87;;
12665;SDS011;58531;59.050;17.416;2023-06-22T07:47:34;4.17;;;3.57;;
12665;SDS011;58531;59.050;17.416;2023-06-22T07:50:03;3.97;;;3.63;;
12665;SDS011;58531;59.050;17.416;2023-06-22T07:52:30;4.80;;;3.80;;
12665;SDS011;58531;59.050;17.416;2023-06-22T07:54:57;4.93;;;3.53;;
12665;SDS011;58531;59.050;17.416;2023-06-22T07:57:24;5.17;;;3.97;;
12665;SDS011;58531;59.050;17.416;2023-06-22T07:59:57;4.30;;;3.47;;
12665;SDS011;58531;59.050;17.416;2023-06-22T08:02:24;6.47;;;3.60;;
12665;SDS011;58531;59.050;17.416;2023-06-22T08:04:51;3.80;;;3.50;;
12665;SDS011;58531;59.050;17.416;2023-06-22T08:07:19;4.23;;;3.40;;
12665;SDS011;58531;59.050;17.416;2023-06-22T08:09:47;3.77;;;3.47;;
12665;SDS011;58531;59.050;17.416;2023-06-22T08:12:14;3.53;;;3.23;;
12665;SDS011;58531;59.050;17.416;2023-06-22T08:14:42;4.00;;;3.70;;
12665;SDS011;58531;59.050;17.416;2023-06-22T08:17:11;7.67;;;3.93;;
12665;SDS011;58531;59.050;17.416;2023-06-22T08:19:39;4.30;;;3.33;;
12665;SDS011;58531;59.050;17.416;2023-06-22T08:22:06;4.00;;;3.37;;
12665;SDS011;58531;59.050;17.416;2023-06-22T08:24:34;3.47;;;3.17;;
12665;SDS011;58531;59.050;17.416;2023-06-22T08:27:01;6.03;;;3.80;;
12665;SDS011;58531;59.050;17.416;2023-06-22T08:29:28;5.27;;;3.73;;
12665;SDS011;58531;59.050;17.416;2023-06-22T08:31:54;5.10;;;3.17;;
12665;SDS011;58531;59.050;17.416;2023-06-22T08:34:21;4.00;;;3.33;;
12665;SDS011;58531;59.050;17.416;2023-06-22T08:36:52;4.37;;;3.80;;
12665;SDS011;58531;59.050;17.416;2023-06-22T08:39:19;3.17;;;2.90;;
12665;SDS011;58531;59.050;17.416;2023-06-22T08:41:47;3.73;;;3.40;;
12665;SDS011;58531;59.050;17.416;2023-06-22T08:44:17;3.80;;;3.50;;
12665;SDS011;58531;59.050;17.416;2023-06-22T08:46:44;4.03;;;3.03;;
12665;SDS011;58531;59.050;17.416;2023-06-22T08:49:11;4.60;;;3.30;;
12665;SDS011;58531;59.050;17.416;2023-06-22T08:51:38;4.13;;;3.30;;
12665;SDS011;58531;59.050;17.416;2023-06-22T08:54:05;3.47;;;3.17;;
12665;SDS011;58531;59.050;17.416;2023-06-22T08:56:32;3.20;;;2.90;;
12665;SDS011;58531;59.050;17.416;2023-06-22T08:59:00;2.90;;;2.60;;
12665;SDS011;58531;59.050;17.416;2023-06-22T09:01:27;3.63;;;3.33;;
12665;SDS011;58531;59.050;17.416;2023-06-22T09:03:54;4.10;;;3.20;;
12665;SDS011;58531;59.050;17.416;2023-06-22T09:06:22;3.13;;;2.83;;
12665;SDS011;58531;59.050;17.416;2023-06-22T09:08:49;4.47;;;3.17;;
12665;SDS011;58531;59.050;17.416;2023-06-22T09:11:17;3.90;;;3.00;;
12665;SDS011;58531;59.050;17.416;2023-06-22T09:13:43;5.00;;;3.20;;
12665;SDS011;58531;59.050;17.416;2023-06-22T09:16:12;3.33;;;2.57;;
12665;SDS011;58531;59.050;17.416;2023-06-22T09:18:39;3.27;;;3.03;;
12665;SDS011;58531;59.050;17.416;2023-06-22T09:21:07;3.30;;;2.67;;
12665;SDS011;58531;59.050;17.416;2023-06-22T09:23:33;4.30;;;3.00;;
12665;SDS011;58531;59.050;17.416;2023-06-22T09:26:00;4.43;;;2.93;;
12665;SDS011;58531;59.050;17.416;2023-06-22T09:28:29;3.87;;;3.20;;
12665;SDS011;58531;59.050;17.416;2023-06-22T09:30:56;7.03;;;3.20;;
12665;SDS011;58531;59.050;17.416;2023-06-22T09:33:25;4.93;;;3.30;;
12665;SDS011;58531;59.050;17.416;2023-06-22T09:35:52;5.20;;;3.40;;
12665;SDS011;58531;59.050;17.416;2023-06-22T09:38:19;3.80;;;2.80;;
12665;SDS011;58531;59.050;17.416;2023-06-22T09:40:46;3.57;;;2.80;;
12665;SDS011;58531;59.050;17.416;2023-06-22T09:43:13;4.60;;;3.07;;
12665;SDS011;58531;59.050;17.416;2023-06-22T09:45:40;4.10;;;2.80;;
12665;SDS011;58531;59.050;17.416;2023-06-22T09:48:07;4.20;;;3.13;;
12665;SDS011;58531;59.050;17.416;2023-06-22T09:50:36;3.37;;;2.53;;
12665;SDS011;58531;59.050;17.416;2023-06-22T09:53:03;4.70;;;3.23;;
12665;SDS011;58531;59.050;17.416;2023-06-22T09:55:30;3.97;;;2.97;;
12665;SDS011;58531;59.050;17.416;2023-06-22T09:57:57;3.50;;;3.03;;
12665;SDS011;58531;59.050;17.416;2023-06-22T10:00:24;4.07;;;2.97;;
12665;SDS011;58531;59.050;17.416;2023-06-22T10:02:51;5.23;;;3.00;;
12665;SDS011;58531;59.050;17.416;2023-06-22T10:05:18;4.17;;;2.90;;
12665;SDS011;58531;59.050;17.416;2023-06-22T10:07:46;3.37;;;2.93;;
12665;SDS011;58531;59.050;17.416;2023-06-22T10:10:13;4.23;;;3.00;;
12665;SDS011;58531;59.050;17.416;2023-06-22T10:12:41;3.60;;;2.97;;
12665;SDS011;58531;59.050;17.416;2023-06-22T10:15:10;3.77;;;3.10;;
12665;SDS011;58531;59.050;17.416;2023-06-22T10:17:37;3.40;;;2.43;;
12665;SDS011;58531;59.050;17.416;2023-06-22T10:20:05;3.00;;;2.50;;
12665;SDS011;58531;59.050;17.416;2023-06-22T10:22:36;6.27;;;3.50;;
12665;SDS011;58531;59.050;17.416;2023-06-22T10:25:06;4.57;;;3.17;;
12665;SDS011;58531;59.050;17.416;2023-06-22T10:27:33;5.40;;;3.53;;
12665;SDS011;58531;59.050;17.416;2023-06-22T10:30:00;4.53;;;2.90;;
12665;SDS011;58531;59.050;17.416;2023-06-22T10:32:30;2.93;;;2.60;;
12665;SDS011;58531;59.050;17.416;2023-06-22T10:34:57;3.57;;;2.60;;
12665;SDS011;58531;59.050;17.416;2023-06-22T10:37:24;4.07;;;2.97;;
12665;SDS011;58531;59.050;17.416;2023-06-22T10:39:50;4.30;;;2.73;;
12665;SDS011;58531;59.050;17.416;2023-06-22T10:42:19;4.40;;;2.53;;
12665;SDS011;58531;59.050;17.416;2023-06-22T10:44:46;3.20;;;2.57;;
12665;SDS011;58531;59.050;17.416;2023-06-22T10:47:13;3.20;;;2.57;;
12665;SDS011;58531;59.050;17.416;2023-06-22T10:49:39;2.60;;;2.40;;
12665;SDS011;58531;59.050;17.416;2023-06-22T10:52:07;2.63;;;2.17;;
12665;SDS011;58531;59.050;17.416;2023-06-22T10:54:35;5.27;;;2.80;;
12665;SDS011;58531;59.050;17.416;2023-06-22T10:57:03;4.73;;;2.80;;
12665;SDS011;58531;59.050;17.416;2023-06-22T10:59:31;5.53;;;2.60;;
12665;SDS011;58531;59.050;17.416;2023-06-22T11:01:58;3.23;;;2.50;;
12665;SDS011;58531;59.050;17.416;2023-06-22T11:04:25;2.87;;;2.33;;
12665;SDS011;58531;59.050;17.416;2023-06-22T11:06:52;3.63;;;2.13;;
12665;SDS011;58531;59.050;17.416;2023-06-22T11:09:19;2.70;;;2.43;;
12665;SDS011;58531;59.050;17.416;2023-06-22T11:11:46;4.27;;;2.50;;
12665;SDS011;58531;59.050;17.416;2023-06-22T11:14:13;3.47;;;2.13;;
12665;SDS011;58531;59.050;17.416;2023-06-22T11:16:42;3.53;;;2.80;;
12665;SDS011;58531;59.050;17.416;2023-06-22T11:19:08;4.60;;;2.50;;
12665;SDS011;58531;59.050;17.416;2023-06-22T11:21:35;4.50;;;2.40;;
12665;SDS011;58531;59.050;17.416;2023-06-22T11:24:02;2.73;;;2.00;;
12665;SDS011;58531;59.050;17.416;2023-06-22T11:26:29;3.43;;;2.33;;
12665;SDS011;58531;59.050;17.416;2023-06-22T11:28:57;2.30;;;2.10;;
12665;SDS011;58531;59.050;17.416;2023-06-22T11:31:24;2.47;;;2.23;;
12665;SDS011;58531;59.050;17.416;2023-06-22T11:33:52;2.40;;;2.20;;
12665;SDS011;58531;59.050;17.416;2023-06-22T11:36:19;2.90;;;2.27;;
12665;SDS011;58531;59.050;17.416;2023-06-22T11:38:46;2.70;;;1.90;;
12665;SDS011;58531;59.050;17.416;2023-06-22T11:41:13;2.93;;;2.30;;
12665;SDS011;58531;59.050;17.416;2023-06-22T11:43:40;2.93;;;1.90;;
12665;SDS011;58531;59.050;17.416;2023-06-22T11:46:06;3.40;;;2.10;;
12665;SDS011;58531;59.050;17.416;2023-06-22T11:48:34;3.83;;;2.17;;
12665;SDS011;58531;59.050;17.416;2023-06-22T11:51:03;3.03;;;2.30;;
12665;SDS011;58531;59.050;17.416;2023-06-22T11:53:31;2.53;;;1.90;;
12665;SDS011;58531;59.050;17.416;2023-06-22T11:55:59;2.50;;;2.07;;
12665;SDS011;58531;59.050;17.416;2023-06-22T11:58:26;5.53;;;2.33;;
12665;SDS011;58531;59.050;17.416;2023-06-22T12:00:53;4.53;;;2.50;;
12665;SDS011;58531;59.050;17.416;2023-06-22T12:03:20;2.90;;;2.10;;
12665;SDS011;58531;59.050;17.416;2023-06-22T12:05:47;3.73;;;2.10;;
12665;SDS011;58531;59.050;17.416;2023-06-22T12:08:18;3.23;;;2.90;;
12665;SDS011;58531;59.050;17.416;2023-06-22T12:10:45;4.43;;;2.40;;
12665;SDS011;58531;59.050;17.416;2023-06-22T12:13:11;3.90;;;2.30;;
12665;SDS011;58531;59.050;17.416;2023-06-22T12:15:38;3.30;;;2.20;;
12665;SDS011;58531;59.050;17.416;2023-06-22T12:18:05;4.13;;;2.80;;
12665;SDS011;58531;59.050;17.416;2023-06-22T12:20:33;3.13;;;2.17;;
12665;SDS011;58531;59.050;17.416;2023-06-22T12:23:01;3.17;;;2.30;;
12665;SDS011;58531;59.050;17.416;2023-06-22T12:25:29;6.37;;;2.40;;
12665;SDS011;58531;59.050;17.416;2023-06-22T12:27:56;4.27;;;2.00;;
12665;SDS011;58531;59.050;17.416;2023-06-22T12:30:23;2.73;;;2.30;;
12665;SDS011;58531;59.050;17.416;2023-06-22T12:32:50;4.13;;;2.60;;
12665;SDS011;58531;59.050;17.416;2023-06-22T12:35:17;2.47;;;2.17;;
12665;SDS011;58531;59.050;17.416;2023-06-22T12:37:43;2.27;;;2.07;;
12665;SDS011;58531;59.050;17.416;2023-06-22T12:40:10;4.17;;;2.20;;
12665;SDS011;58531;59.050;17.416;2023-06-22T12:42:39;3.47;;;2.00;;
12665;SDS011;58531;59.050;17.416;2023-06-22T12:45:07;2.70;;;2.20;;
12665;SDS011;58531;59.050;17.416;2023-06-22T12:47:34;2.67;;;2.20;;
12665;SDS011;58531;59.050;17.416;2023-06-22T12:50:01;2.67;;;1.87;;
12665;SDS011;58531;59.050;17.416;2023-06-22T12:52:29;2.53;;;2.33;;
12665;SDS011;58531;59.050;17.416;2023-06-22T12:54:57;3.10;;;2.20;;
12665;SDS011;58531;59.050;17.416;2023-06-22T12:57:24;2.60;;;2.33;;
12665;SDS011;58531;59.050;17.416;2023-06-22T12:59:52;2.70;;;1.80;;
12665;SDS011;58531;59.050;17.416;2023-06-22T13:02:19;2.70;;;2.20;;
12665;SDS011;58531;59.050;17.416;2023-06-22T13:04:46;2.90;;;2.30;;
12665;SDS011;58531;59.050;17.416;2023-06-22T13:07:13;5.60;;;2.20;;
12665;SDS011;58531;59.050;17.416;2023-06-22T13:09:39;3.53;;;2.37;;
12665;SDS011;58531;59.050;17.416;2023-06-22T13:12:07;4.73;;;2.50;;
12665;SDS011;58531;59.050;17.416;2023-06-22T13:14:34;4.27;;;2.00;;
12665;SDS011;58531;59.050;17.416;2023-06-22T13:17:02;2.87;;;2.30;;
12665;SDS011;58531;59.050;17.416;2023-06-22T13:19:29;3.47;;;2.17;;
12665;SDS011;58531;59.050;17.416;2023-06-22T13:21:57;4.20;;;2.57;;
12665;SDS011;58531;59.050;17.416;2023-06-22T13:24:25;3.60;;;2.10;;
12665;SDS011;58531;59.050;17.416;2023-06-22T13:26:52;2.50;;;2.30;;
12665;SDS011;58531;59.050;17.416;2023-06-22T13:29:18;3.30;;;2.37;;
12665;SDS011;58531;59.050;17.416;2023-06-22T13:31:45;3.87;;;2.30;;
12665;SDS011;58531;59.050;17.416;2023-06-22T13:34:14;2.60;;;2.07;;
12665;SDS011;58531;59.050;17.416;2023-06-22T13:36:40;2.83;;;2.20;;
12665;SDS011;58531;59.050;17.416;2023-06-22T13:39:07;2.33;;;2.13;;
12665;SDS011;58531;59.050;17.416;2023-06-22T13:41:34;3.13;;;2.10;;
12665;SDS011;58531;59.050;17.416;2023-06-22T13:44:01;2.40;;;2.20;;
12665;SDS011;58531;59.050;17.416;2023-06-22T13:46:28;3.07;;;2.10;;
12665;SDS011;58531;59.050;17.416;2023-06-22T13:48:55;2.47;;;2.20;;
12665;SDS011;58531;59.050;17.416;2023-06-22T13:51:23;3.13;;;2.23;;
12665;SDS011;58531;59.050;17.416;2023-06-22T13:53:50;4.33;;;2.40;;
12665;SDS011;58531;59.050;17.416;2023-06-22T13:56:17;2.60;;;2.23;;
12665;SDS011;58531;59.050;17.416;2023-06-22T13:58:44;3.57;;;2.23;;
12665;SDS011;58531;59.050;17.416;2023-06-22T14:01:11;4.07;;;2.37;;
12665;SDS011;58531;59.050;17.416;2023-06-22T14:03:38;4.93;;;2.23;;
12665;SDS011;58531;59.050;17.416;2023-06-22T14:06:05;3.17;;;1.87;;
12665;SDS011;58531;59.050;17.416;2023-06-22T14:08:33;2.00;;;1.90;;
12665;SDS011;58531;59.050;17.416;2023-06-22T14:11:00;2.53;;;1.93;;
12665;SDS011;58531;59.050;17.416;2023-06-22T14:13:26;3.73;;;2.30;;
12665;SDS011;58531;59.050;17.416;2023-06-22T14:15:53;2.23;;;2.03;;
12665;SDS011;58531;59.050;17.416;2023-06-22T14:18:20;2.50;;;2.30;;
12665;SDS011;58531;59.050;17.416;2023-06-22T14:20:48;2.27;;;1.80;;
12665;SDS011;58531;59.050;17.416;2023-06-22T14:23:15;3.43;;;2.13;;
12665;SDS011;58531;59.050;17.416;2023-06-22T14:25:43;2.47;;;2.27;;
12665;SDS011;58531;59.050;17.416;2023-06-22T14:28:10;4.97;;;2.30;;
12665;SDS011;58531;59.050;17.416;2023-06-22T14:30:37;2.73;;;2.10;;